sensor_id;sensor_type;location;lat;lon;timestamp;temperature;humidity
67862;DHT22;54665;51.462;6.698;2022-11-20T00:01:11;-3.07;94.41
67862;DHT22;54665;51.462;6.698;2022-11-20T00:03:36;-2.99;94.36
67862;DHT22;54665;51.462;6.698;2022-11-20T00:06:04;-2.99;94.33
67862;DHT22;54665;51.462;6.698;2022-11-20T00:08:29;-2.96;94.21
67862;DHT22;54665;51.462;6.698;2022-11-20T00:10:55;-2.97;94.19
67862;DHT22;54665;51.462;6.698;2022-11-20T00:13:20;-3.00;94.09
67862;DHT22;54665;51.462;6.698;2022-11-20T00:15:46;-2.97;94.05
67862;DHT22;54665;51.462;6.698;2022-11-20T00:18:11;-2.93;94.20
67862;DHT22;54665;51.462;6.698;2022-11-20T00:20:36;-3.00;93.88
67862;DHT22;54665;51.462;6.698;2022-11-20T00:23:02;-3.08;93.88
67862;DHT22;54665;51.462;6.698;2022-11-20T00:25:27;-3.13;93.90
67862;DHT22;54665;51.462;6.698;2022-11-20T00:27:52;-3.17;94.00
67862;DHT22;54665;51.462;6.698;2022-11-20T00:30:18;-3.33;93.80
67862;DHT22;54665;51.462;6.698;2022-11-20T00:32:43;-3.28;94.24
67862;DHT22;54665;51.462;6.698;2022-11-20T00:35:09;-3.33;93.92
67862;DHT22;54665;51.462;6.698;2022-11-20T00:37:34;-3.40;93.78
67862;DHT22;54665;51.462;6.698;2022-11-20T00:39:59;-3.45;93.88
67862;DHT22;54665;51.462;6.698;2022-11-20T00:42:25;-3.55;94.11
67862;DHT22;54665;51.462;6.698;2022-11-20T00:44:50;-3.52;94.52
67862;DHT22;54665;51.462;6.698;2022-11-20T00:47:15;-3.44;94.59
67862;DHT22;54665;51.462;6.698;2022-11-20T00:49:41;-3.45;94.34
67862;DHT22;54665;51.462;6.698;2022-11-20T00:52:06;-3.50;94.38
67862;DHT22;54665;51.462;6.698;2022-11-20T00:54:32;-3.45;94.70
67862;DHT22;54665;51.462;6.698;2022-11-20T00:56:57;-3.47;94.59
67862;DHT22;54665;51.462;6.698;2022-11-20T00:59:22;-3.45;94.47
67862;DHT22;54665;51.462;6.698;2022-11-20T01:01:48;-3.55;94.33
67862;DHT22;54665;51.462;6.698;2022-11-20T01:04:13;-3.59;94.36
67862;DHT22;54665;51.462;6.698;2022-11-20T01:06:39;-3.65;94.42
67862;DHT22;54665;51.462;6.698;2022-11-20T01:09:13;-3.62;94.72
67862;DHT22;54665;51.462;6.698;2022-11-20T01:11:41;-3.64;94.62
67862;DHT22;54665;51.462;6.698;2022-11-20T01:14:10;-3.65;94.63
67862;DHT22;54665;51.462;6.698;2022-11-20T01:16:39;-3.62;94.80
67862;DHT22;54665;51.462;6.698;2022-11-20T01:19:08;-3.61;94.92
67862;DHT22;54665;51.462;6.698;2022-11-20T01:21:36;-3.52;95.05
67862;DHT22;54665;51.462;6.698;2022-11-20T01:24:03;-3.43;94.93
67862;DHT22;54665;51.462;6.698;2022-11-20T01:26:31;-3.25;95.06
67862;DHT22;54665;51.462;6.698;2022-11-20T01:28:58;-3.08;95.15
67862;DHT22;54665;51.462;6.698;2022-11-20T01:31:29;-2.97;94.96
67862;DHT22;54665;51.462;6.698;2022-11-20T01:33:57;-2.86;94.87
67862;DHT22;54665;51.462;6.698;2022-11-20T01:36:24;-2.75;94.81
67862;DHT22;54665;51.462;6.698;2022-11-20T01:38:54;-2.68;94.76
67862;DHT22;54665;51.462;6.698;2022-11-20T01:41:21;-2.59;94.70
67862;DHT22;54665;51.462;6.698;2022-11-20T01:44:05;-2.51;94.75
67862;DHT22;54665;51.462;6.698;2022-11-20T01:46:34;-2.35;94.63
67862;DHT22;54665;51.462;6.698;2022-11-20T01:49:04;-2.27;94.33
67862;DHT22;54665;51.462;6.698;2022-11-20T01:51:45;-2.22;94.16
67862;DHT22;54665;51.462;6.698;2022-11-20T01:54:51;-2.14;94.22
67862;DHT22;54665;51.462;6.698;2022-11-20T01:57:10;-2.00;94.16
67862;DHT22;54665;51.462;6.698;2022-11-20T01:59:49;-1.87;94.14
67862;DHT22;54665;51.462;6.698;2022-11-20T02:02:18;-1.74;93.97
67862;DHT22;54665;51.462;6.698;2022-11-20T02:04:44;-1.74;93.74
67862;DHT22;54665;51.462;6.698;2022-11-20T02:07:10;-1.69;93.50
67862;DHT22;54665;51.462;6.698;2022-11-20T02:09:35;-1.60;93.25
67862;DHT22;54665;51.462;6.698;2022-11-20T02:12:01;-1.56;93.26
67862;DHT22;54665;51.462;6.698;2022-11-20T02:14:27;-1.46;93.22
67862;DHT22;54665;51.462;6.698;2022-11-20T02:16:54;-1.39;93.20
67862;DHT22;54665;51.462;6.698;2022-11-20T02:19:24;-1.31;92.95
67862;DHT22;54665;51.462;6.698;2022-11-20T02:21:55;-1.28;92.80
67862;DHT22;54665;51.462;6.698;2022-11-20T02:24:22;-1.22;92.81
67862;DHT22;54665;51.462;6.698;2022-11-20T02:26:52;-1.22;92.62
67862;DHT22;54665;51.462;6.698;2022-11-20T02:29:24;-1.20;92.78
67862;DHT22;54665;51.462;6.698;2022-11-20T02:31:51;-1.12;92.62
67862;DHT22;54665;51.462;6.698;2022-11-20T02:34:17;-1.09;92.15
67862;DHT22;54665;51.462;6.698;2022-11-20T02:36:43;-1.08;91.75
67862;DHT22;54665;51.462;6.698;2022-11-20T02:39:11;-1.08;92.03
67862;DHT22;54665;51.462;6.698;2022-11-20T02:41:38;-1.02;92.16
67862;DHT22;54665;51.462;6.698;2022-11-20T02:44:04;-0.99;91.98
67862;DHT22;54665;51.462;6.698;2022-11-20T02:46:31;-0.89;92.10
67862;DHT22;54665;51.462;6.698;2022-11-20T02:48:57;-0.84;91.88
67862;DHT22;54665;51.462;6.698;2022-11-20T02:51:22;-0.77;91.54
67862;DHT22;54665;51.462;6.698;2022-11-20T02:53:48;-0.76;91.74
67862;DHT22;54665;51.462;6.698;2022-11-20T02:56:14;-0.71;91.28
67862;DHT22;54665;51.462;6.698;2022-11-20T02:58:39;-0.68;91.17
67862;DHT22;54665;51.462;6.698;2022-11-20T03:01:05;-0.68;91.31
67862;DHT22;54665;51.462;6.698;2022-11-20T03:03:30;-0.70;91.26
67862;DHT22;54665;51.462;6.698;2022-11-20T03:05:58;-0.67;91.18
67862;DHT22;54665;51.462;6.698;2022-11-20T03:08:24;-0.60;91.25
67862;DHT22;54665;51.462;6.698;2022-11-20T03:10:49;-0.60;91.45
67862;DHT22;54665;51.462;6.698;2022-11-20T03:13:14;-0.54;91.05
67862;DHT22;54665;51.462;6.698;2022-11-20T03:15:40;-0.57;90.91
67862;DHT22;54665;51.462;6.698;2022-11-20T03:18:05;-0.53;90.98
67862;DHT22;54665;51.462;6.698;2022-11-20T03:20:32;-0.49;90.96
67862;DHT22;54665;51.462;6.698;2022-11-20T03:22:58;-0.49;91.00
67862;DHT22;54665;51.462;6.698;2022-11-20T03:25:24;-0.50;90.96
67862;DHT22;54665;51.462;6.698;2022-11-20T03:27:49;-0.47;90.91
67862;DHT22;54665;51.462;6.698;2022-11-20T03:30:15;-0.46;90.65
67862;DHT22;54665;51.462;6.698;2022-11-20T03:32:40;-0.46;90.75
67862;DHT22;54665;51.462;6.698;2022-11-20T03:35:06;-0.40;90.89
67862;DHT22;54665;51.462;6.698;2022-11-20T03:37:31;-0.36;90.94
67862;DHT22;54665;51.462;6.698;2022-11-20T03:39:57;-0.34;90.70
67862;DHT22;54665;51.462;6.698;2022-11-20T03:42:22;-0.38;90.51
67862;DHT22;54665;51.462;6.698;2022-11-20T03:45:06;-0.37;90.62
67862;DHT22;54665;51.462;6.698;2022-11-20T03:47:32;-0.40;90.49
67862;DHT22;54665;51.462;6.698;2022-11-20T03:49:57;-0.46;90.66
67862;DHT22;54665;51.462;6.698;2022-11-20T03:52:23;-0.43;90.79
67862;DHT22;54665;51.462;6.698;2022-11-20T03:54:49;-0.36;91.18
67862;DHT22;54665;51.462;6.698;2022-11-20T03:57:14;-0.22;90.97
67862;DHT22;54665;51.462;6.698;2022-11-20T03:59:40;-0.20;90.63
67862;DHT22;54665;51.462;6.698;2022-11-20T04:02:05;-0.16;90.71
67862;DHT22;54665;51.462;6.698;2022-11-20T04:04:30;-0.09;90.86
67862;DHT22;54665;51.462;6.698;2022-11-20T04:06:56;-0.07;90.30
67862;DHT22;54665;51.462;6.698;2022-11-20T04:09:21;-0.09;90.53
67862;DHT22;54665;51.462;6.698;2022-11-20T04:11:46;-0.02;90.75
67862;DHT22;54665;51.462;6.698;2022-11-20T04:14:15;-0.02;90.96
67862;DHT22;54665;51.462;6.698;2022-11-20T04:16:41;-0.03;91.02
67862;DHT22;54665;51.462;6.698;2022-11-20T04:19:13;0.05;91.00
67862;DHT22;54665;51.462;6.698;2022-11-20T04:21:39;0.04;90.94
67862;DHT22;54665;51.462;6.698;2022-11-20T04:24:05;0.11;91.04
67862;DHT22;54665;51.462;6.698;2022-11-20T04:26:31;0.16;90.86
67862;DHT22;54665;51.462;6.698;2022-11-20T04:28:57;0.19;90.73
67862;DHT22;54665;51.462;6.698;2022-11-20T04:31:25;0.21;90.82
67862;DHT22;54665;51.462;6.698;2022-11-20T04:33:51;0.16;90.70
67862;DHT22;54665;51.462;6.698;2022-11-20T04:36:19;0.09;90.43
67862;DHT22;54665;51.462;6.698;2022-11-20T04:38:45;0.08;90.49
67862;DHT22;54665;51.462;6.698;2022-11-20T04:41:18;0.11;90.33
67862;DHT22;54665;51.462;6.698;2022-11-20T04:43:49;0.06;90.45
67862;DHT22;54665;51.462;6.698;2022-11-20T04:46:18;0.01;90.11
67862;DHT22;54665;51.462;6.698;2022-11-20T04:48:44;0.05;90.04
67862;DHT22;54665;51.462;6.698;2022-11-20T04:51:09;0.09;90.00
67862;DHT22;54665;51.462;6.698;2022-11-20T04:53:35;0.09;89.54
67862;DHT22;54665;51.462;6.698;2022-11-20T04:56:01;0.06;89.52
67862;DHT22;54665;51.462;6.698;2022-11-20T04:58:27;0.02;89.11
67862;DHT22;54665;51.462;6.698;2022-11-20T05:00:52;0.05;89.31
67862;DHT22;54665;51.462;6.698;2022-11-20T05:03:17;0.02;89.11
67862;DHT22;54665;51.462;6.698;2022-11-20T05:05:43;-0.02;88.71
67862;DHT22;54665;51.462;6.698;2022-11-20T05:08:08;0.04;88.90
67862;DHT22;54665;51.462;6.698;2022-11-20T05:10:33;-0.02;88.60
67862;DHT22;54665;51.462;6.698;2022-11-20T05:12:59;-0.03;88.72
67862;DHT22;54665;51.462;6.698;2022-11-20T05:15:24;-0.07;88.71
67862;DHT22;54665;51.462;6.698;2022-11-20T05:17:51;-0.06;88.87
67862;DHT22;54665;51.462;6.698;2022-11-20T05:20:17;0.01;89.08
67862;DHT22;54665;51.462;6.698;2022-11-20T05:22:43;0.05;89.08
67862;DHT22;54665;51.462;6.698;2022-11-20T05:25:09;0.12;88.55
67862;DHT22;54665;51.462;6.698;2022-11-20T05:27:35;0.06;87.47
67862;DHT22;54665;51.462;6.698;2022-11-20T05:30:00;0.05;87.83
67862;DHT22;54665;51.462;6.698;2022-11-20T05:32:25;0.09;87.38
67862;DHT22;54665;51.462;6.698;2022-11-20T05:34:52;0.08;87.73
67862;DHT22;54665;51.462;6.698;2022-11-20T05:37:17;0.05;87.48
67862;DHT22;54665;51.462;6.698;2022-11-20T05:39:43;0.11;88.24
67862;DHT22;54665;51.462;6.698;2022-11-20T05:42:08;0.18;88.40
67862;DHT22;54665;51.462;6.698;2022-11-20T05:44:52;0.21;88.01
67862;DHT22;54665;51.462;6.698;2022-11-20T05:47:17;0.24;88.06
67862;DHT22;54665;51.462;6.698;2022-11-20T05:49:43;0.24;87.86
67862;DHT22;54665;51.462;6.698;2022-11-20T05:52:08;0.28;87.91
67862;DHT22;54665;51.462;6.698;2022-11-20T05:54:33;0.28;87.78
67862;DHT22;54665;51.462;6.698;2022-11-20T05:56:59;0.30;87.79
67862;DHT22;54665;51.462;6.698;2022-11-20T05:59:24;0.24;88.06
67862;DHT22;54665;51.462;6.698;2022-11-20T06:01:50;0.18;87.98
67862;DHT22;54665;51.462;6.698;2022-11-20T06:04:15;0.11;88.10
67862;DHT22;54665;51.462;6.698;2022-11-20T06:06:41;-0.02;88.19
67862;DHT22;54665;51.462;6.698;2022-11-20T06:09:06;-0.13;88.48
67862;DHT22;54665;51.462;6.698;2022-11-20T06:11:31;-0.22;88.89
67862;DHT22;54665;51.462;6.698;2022-11-20T06:13:57;-0.22;89.41
67862;DHT22;54665;51.462;6.698;2022-11-20T06:16:22;-0.29;89.60
67862;DHT22;54665;51.462;6.698;2022-11-20T06:18:47;-0.27;89.91
67862;DHT22;54665;51.462;6.698;2022-11-20T06:21:15;-0.27;90.12
67862;DHT22;54665;51.462;6.698;2022-11-20T06:23:41;-0.26;90.30
67862;DHT22;54665;51.462;6.698;2022-11-20T06:26:09;-0.26;90.28
67862;DHT22;54665;51.462;6.698;2022-11-20T06:28:35;-0.33;90.09
67862;DHT22;54665;51.462;6.698;2022-11-20T06:31:01;-0.29;90.62
67862;DHT22;54665;51.462;6.698;2022-11-20T06:33:27;-0.27;90.55
67862;DHT22;54665;51.462;6.698;2022-11-20T06:35:56;-0.32;90.45
67862;DHT22;54665;51.462;6.698;2022-11-20T06:38:22;-0.32;90.50
67862;DHT22;54665;51.462;6.698;2022-11-20T06:40:47;-0.38;90.60
67862;DHT22;54665;51.462;6.698;2022-11-20T06:43:13;-0.33;91.06
67862;DHT22;54665;51.462;6.698;2022-11-20T06:45:38;-0.29;91.25
67862;DHT22;54665;51.462;6.698;2022-11-20T06:48:04;-0.22;91.30
67862;DHT22;54665;51.462;6.698;2022-11-20T06:50:29;-0.16;91.20
67862;DHT22;54665;51.462;6.698;2022-11-20T06:52:55;-0.12;91.29
67862;DHT22;54665;51.462;6.698;2022-11-20T06:55:20;-0.01;91.25
67862;DHT22;54665;51.462;6.698;2022-11-20T06:57:46;0.01;91.24
67862;DHT22;54665;51.462;6.698;2022-11-20T07:00:11;-0.03;91.06
67862;DHT22;54665;51.462;6.698;2022-11-20T07:02:37;-0.01;91.06
67862;DHT22;54665;51.462;6.698;2022-11-20T07:05:02;-0.03;91.03
67862;DHT22;54665;51.462;6.698;2022-11-20T07:07:28;0.01;91.14
67862;DHT22;54665;51.462;6.698;2022-11-20T07:09:54;0.06;91.09
67862;DHT22;54665;51.462;6.698;2022-11-20T07:12:19;0.12;91.22
67862;DHT22;54665;51.462;6.698;2022-11-20T07:14:45;0.19;91.19
67862;DHT22;54665;51.462;6.698;2022-11-20T07:17:11;0.22;91.03
67862;DHT22;54665;51.462;6.698;2022-11-20T07:19:36;0.30;90.95
67862;DHT22;54665;51.462;6.698;2022-11-20T07:22:02;0.36;90.88
67862;DHT22;54665;51.462;6.698;2022-11-20T07:24:27;0.42;90.85
67862;DHT22;54665;51.462;6.698;2022-11-20T07:26:52;0.49;90.73
67862;DHT22;54665;51.462;6.698;2022-11-20T07:29:18;0.59;90.42
67862;DHT22;54665;51.462;6.698;2022-11-20T07:31:43;0.63;90.26
67862;DHT22;54665;51.462;6.698;2022-11-20T07:34:09;0.67;90.10
67862;DHT22;54665;51.462;6.698;2022-11-20T07:36:34;0.73;90.41
67862;DHT22;54665;51.462;6.698;2022-11-20T07:39:00;0.84;90.05
67862;DHT22;54665;51.462;6.698;2022-11-20T07:41:25;0.88;89.96
67862;DHT22;54665;51.462;6.698;2022-11-20T07:43:50;0.94;89.86
67862;DHT22;54665;51.462;6.698;2022-11-20T07:46:16;1.01;89.71
67862;DHT22;54665;51.462;6.698;2022-11-20T07:48:41;1.04;89.64
67862;DHT22;54665;51.462;6.698;2022-11-20T07:51:07;1.04;89.09
67862;DHT22;54665;51.462;6.698;2022-11-20T07:53:32;1.14;89.23
67862;DHT22;54665;51.462;6.698;2022-11-20T07:56:02;1.18;88.48
67862;DHT22;54665;51.462;6.698;2022-11-20T07:58:29;1.27;88.50
67862;DHT22;54665;51.462;6.698;2022-11-20T08:00:55;1.34;88.35
67862;DHT22;54665;51.462;6.698;2022-11-20T08:03:20;1.39;88.10
67862;DHT22;54665;51.462;6.698;2022-11-20T08:05:46;1.44;87.75
67862;DHT22;54665;51.462;6.698;2022-11-20T08:08:11;1.42;87.56
67862;DHT22;54665;51.462;6.698;2022-11-20T08:10:36;1.38;87.58
67862;DHT22;54665;51.462;6.698;2022-11-20T08:13:02;1.27;87.79
67862;DHT22;54665;51.462;6.698;2022-11-20T08:15:50;1.14;87.89
67862;DHT22;54665;51.462;6.698;2022-11-20T08:18:18;1.16;88.26
67862;DHT22;54665;51.462;6.698;2022-11-20T08:20:44;1.25;88.59
67862;DHT22;54665;51.462;6.698;2022-11-20T08:23:09;1.42;88.49
67862;DHT22;54665;51.462;6.698;2022-11-20T08:25:36;1.58;88.18
67862;DHT22;54665;51.462;6.698;2022-11-20T08:28:05;1.68;87.68
67862;DHT22;54665;51.462;6.698;2022-11-20T08:30:31;1.78;87.22
67862;DHT22;54665;51.462;6.698;2022-11-20T08:33:10;1.86;86.47
67862;DHT22;54665;51.462;6.698;2022-11-20T08:35:36;1.96;86.47
67862;DHT22;54665;51.462;6.698;2022-11-20T08:38:04;2.07;86.23
67862;DHT22;54665;51.462;6.698;2022-11-20T08:40:30;2.14;85.38
67862;DHT22;54665;51.462;6.698;2022-11-20T08:42:55;2.31;85.63
67862;DHT22;54665;51.462;6.698;2022-11-20T08:45:21;2.47;85.21
67862;DHT22;54665;51.462;6.698;2022-11-20T08:47:46;2.54;84.71
67862;DHT22;54665;51.462;6.698;2022-11-20T08:50:13;2.68;83.85
67862;DHT22;54665;51.462;6.698;2022-11-20T08:52:39;2.87;83.80
67862;DHT22;54665;51.462;6.698;2022-11-20T08:55:05;2.92;82.81
67862;DHT22;54665;51.462;6.698;2022-11-20T08:57:34;2.82;82.13
67862;DHT22;54665;51.462;6.698;2022-11-20T09:00:02;2.82;82.27
67862;DHT22;54665;51.462;6.698;2022-11-20T09:02:28;2.75;82.53
67862;DHT22;54665;51.462;6.698;2022-11-20T09:04:53;2.82;83.09
67862;DHT22;54665;51.462;6.698;2022-11-20T09:07:19;3.02;83.05
67862;DHT22;54665;51.462;6.698;2022-11-20T09:09:44;3.29;82.80
67862;DHT22;54665;51.462;6.698;2022-11-20T09:12:10;3.99;81.47
67862;DHT22;54665;51.462;6.698;2022-11-20T09:14:35;4.72;77.55
67862;DHT22;54665;51.462;6.698;2022-11-20T09:17:00;4.90;75.15
67862;DHT22;54665;51.462;6.698;2022-11-20T09:19:26;4.57;75.90
67862;DHT22;54665;51.462;6.698;2022-11-20T09:21:51;4.42;76.49
67862;DHT22;54665;51.462;6.698;2022-11-20T09:24:18;4.31;77.00
67862;DHT22;54665;51.462;6.698;2022-11-20T09:26:44;4.05;77.49
67862;DHT22;54665;51.462;6.698;2022-11-20T09:29:09;3.80;78.39
67862;DHT22;54665;51.462;6.698;2022-11-20T09:31:34;3.71;78.30
67862;DHT22;54665;51.462;6.698;2022-11-20T09:34:00;3.39;79.01
67862;DHT22;54665;51.462;6.698;2022-11-20T09:36:25;3.12;79.45
67862;DHT22;54665;51.462;6.698;2022-11-20T09:38:51;2.92;81.06
67862;DHT22;54665;51.462;6.698;2022-11-20T09:47:11;2.81;82.13
67862;DHT22;54665;51.462;6.698;2022-11-20T09:55:31;2.88;82.15
67862;DHT22;54665;51.462;6.698;2022-11-20T09:57:57;2.85;82.48
67862;DHT22;54665;51.462;6.698;2022-11-20T10:00:24;3.01;82.62
67862;DHT22;54665;51.462;6.698;2022-11-20T10:03:06;3.19;82.15
67862;DHT22;54665;51.462;6.698;2022-11-20T10:05:44;3.33;82.04
67862;DHT22;54665;51.462;6.698;2022-11-20T10:08:21;3.40;81.26
67862;DHT22;54665;51.462;6.698;2022-11-20T10:10:50;3.47;80.88
67862;DHT22;54665;51.462;6.698;2022-11-20T10:13:51;3.61;81.26
67862;DHT22;54665;51.462;6.698;2022-11-20T10:30:12;4.79;78.03
67862;DHT22;54665;51.462;6.698;2022-11-20T10:32:40;4.84;77.87
67862;DHT22;54665;51.462;6.698;2022-11-20T10:35:35;4.98;77.93
67862;DHT22;54665;51.462;6.698;2022-11-20T10:38:11;5.07;77.55
67862;DHT22;54665;51.462;6.698;2022-11-20T10:43:33;5.15;77.65
67862;DHT22;54665;51.462;6.698;2022-11-20T10:46:06;5.13;77.97
67862;DHT22;54665;51.462;6.698;2022-11-20T10:48:35;5.30;77.30
67862;DHT22;54665;51.462;6.698;2022-11-20T10:51:30;5.39;78.61
67862;DHT22;54665;51.462;6.698;2022-11-20T10:57:10;5.03;79.17
67862;DHT22;54665;51.462;6.698;2022-11-20T10:59:51;4.98;79.20
67862;DHT22;54665;51.462;6.698;2022-11-20T11:02:21;4.88;79.71
67862;DHT22;54665;51.462;6.698;2022-11-20T11:04:49;4.91;80.60
67862;DHT22;54665;51.462;6.698;2022-11-20T11:09:52;4.91;81.07
67862;DHT22;54665;51.462;6.698;2022-11-20T11:12:19;4.96;80.57
67862;DHT22;54665;51.462;6.698;2022-11-20T11:14:51;4.86;80.65
67862;DHT22;54665;51.462;6.698;2022-11-20T11:17:34;4.79;80.66
67862;DHT22;54665;51.462;6.698;2022-11-20T11:22:33;4.77;81.29
67862;DHT22;54665;51.462;6.698;2022-11-20T11:24:59;4.80;81.05
67862;DHT22;54665;51.462;6.698;2022-11-20T11:27:25;4.91;81.07
67862;DHT22;54665;51.462;6.698;2022-11-20T11:30:02;4.87;80.97
67862;DHT22;54665;51.462;6.698;2022-11-20T11:32:28;4.81;81.22
67862;DHT22;54665;51.462;6.698;2022-11-20T11:35:04;4.88;81.46
67862;DHT22;54665;51.462;6.698;2022-11-20T11:37:34;4.90;81.43
67862;DHT22;54665;51.462;6.698;2022-11-20T11:40:01;4.94;81.81
67862;DHT22;54665;51.462;6.698;2022-11-20T11:42:27;4.93;81.17
67862;DHT22;54665;51.462;6.698;2022-11-20T11:44:56;5.01;80.78
67862;DHT22;54665;51.462;6.698;2022-11-20T11:47:44;5.13;81.20
67862;DHT22;54665;51.462;6.698;2022-11-20T11:58:20;5.13;80.71
67862;DHT22;54665;51.462;6.698;2022-11-20T12:03:38;5.10;81.76
67862;DHT22;54665;51.462;6.698;2022-11-20T12:06:11;5.07;81.27
67862;DHT22;54665;51.462;6.698;2022-11-20T12:08:43;5.06;81.81
67862;DHT22;54665;51.462;6.698;2022-11-20T12:13:57;5.03;81.59
67862;DHT22;54665;51.462;6.698;2022-11-20T12:16:24;5.07;81.33
67862;DHT22;54665;51.462;6.698;2022-11-20T12:18:52;5.07;81.54
67862;DHT22;54665;51.462;6.698;2022-11-20T12:21:25;5.10;81.39
67862;DHT22;54665;51.462;6.698;2022-11-20T12:24:21;5.25;81.47
67862;DHT22;54665;51.462;6.698;2022-11-20T12:43:19;5.96;79.73
67862;DHT22;54665;51.462;6.698;2022-11-20T12:46:37;5.93;78.34
67862;DHT22;54665;51.462;6.698;2022-11-20T12:49:23;5.82;78.42
67862;DHT22;54665;51.462;6.698;2022-11-20T12:52:17;5.68;78.51
67862;DHT22;54665;51.462;6.698;2022-11-20T12:54:59;5.56;79.62
67862;DHT22;54665;51.462;6.698;2022-11-20T12:58:00;5.51;79.97
67862;DHT22;54665;51.462;6.698;2022-11-20T13:00:26;5.47;80.28
67862;DHT22;54665;51.462;6.698;2022-11-20T13:03:20;5.51;80.09
67862;DHT22;54665;51.462;6.698;2022-11-20T13:06:08;5.51;81.18
67862;DHT22;54665;51.462;6.698;2022-11-20T13:08:41;5.42;81.51
67862;DHT22;54665;51.462;6.698;2022-11-20T13:14:04;5.21;83.41
67862;DHT22;54665;51.462;6.698;2022-11-20T13:19:10;4.97;84.84
67862;DHT22;54665;51.462;6.698;2022-11-20T13:21:44;4.96;85.45
67862;DHT22;54665;51.462;6.698;2022-11-20T13:27:22;4.86;87.50
67862;DHT22;54665;51.462;6.698;2022-11-20T13:30:12;4.81;87.88
67862;DHT22;54665;51.462;6.698;2022-11-20T13:32:58;4.72;88.78
67862;DHT22;54665;51.462;6.698;2022-11-20T13:35:37;4.63;89.34
67862;DHT22;54665;51.462;6.698;2022-11-20T13:38:13;4.59;89.53
67862;DHT22;54665;51.462;6.698;2022-11-20T13:40:54;4.50;89.45
67862;DHT22;54665;51.462;6.698;2022-11-20T13:43:41;4.45;90.06
67862;DHT22;54665;51.462;6.698;2022-11-20T13:46:08;4.41;90.17
67862;DHT22;54665;51.462;6.698;2022-11-20T13:48:39;4.41;90.12
67862;DHT22;54665;51.462;6.698;2022-11-20T13:54:02;4.41;90.51
67862;DHT22;54665;51.462;6.698;2022-11-20T13:56:37;4.39;90.51
67862;DHT22;54665;51.462;6.698;2022-11-20T13:59:28;4.42;90.53
67862;DHT22;54665;51.462;6.698;2022-11-20T14:01:58;4.48;90.97
67862;DHT22;54665;51.462;6.698;2022-11-20T14:04:29;4.48;91.18
67862;DHT22;54665;51.462;6.698;2022-11-20T14:06:56;4.46;91.52
67862;DHT22;54665;51.462;6.698;2022-11-20T14:09:30;4.45;91.30
67862;DHT22;54665;51.462;6.698;2022-11-20T14:11:56;4.45;91.49
67862;DHT22;54665;51.462;6.698;2022-11-20T14:14:27;4.48;91.20
67862;DHT22;54665;51.462;6.698;2022-11-20T14:17:05;4.53;91.37
67862;DHT22;54665;51.462;6.698;2022-11-20T14:19:31;4.50;91.02
67862;DHT22;54665;51.462;6.698;2022-11-20T14:22:23;4.55;91.11
67862;DHT22;54665;51.462;6.698;2022-11-20T14:25:21;4.53;90.73
67862;DHT22;54665;51.462;6.698;2022-11-20T14:27:53;4.52;90.84
67862;DHT22;54665;51.462;6.698;2022-11-20T14:30:23;4.53;90.94
67862;DHT22;54665;51.462;6.698;2022-11-20T14:32:49;4.52;91.25
67862;DHT22;54665;51.462;6.698;2022-11-20T14:35:23;4.48;91.25
67862;DHT22;54665;51.462;6.698;2022-11-20T14:37:49;4.42;91.03
67862;DHT22;54665;51.462;6.698;2022-11-20T14:40:32;4.38;91.47
67862;DHT22;54665;51.462;6.698;2022-11-20T14:43:00;4.32;91.86
67862;DHT22;54665;51.462;6.698;2022-11-20T14:45:26;4.29;92.15
67862;DHT22;54665;51.462;6.698;2022-11-20T14:47:54;4.31;92.29
67862;DHT22;54665;51.462;6.698;2022-11-20T14:50:28;4.35;92.44
67862;DHT22;54665;51.462;6.698;2022-11-20T14:52:58;4.35;92.21
67862;DHT22;54665;51.462;6.698;2022-11-20T14:55:30;4.32;92.27
67862;DHT22;54665;51.462;6.698;2022-11-20T14:57:58;4.35;92.42
67862;DHT22;54665;51.462;6.698;2022-11-20T15:00:24;4.35;92.80
67862;DHT22;54665;51.462;6.698;2022-11-20T15:02:51;4.36;92.87
67862;DHT22;54665;51.462;6.698;2022-11-20T15:05:18;4.39;92.82
67862;DHT22;54665;51.462;6.698;2022-11-20T15:07:47;4.39;92.86
67862;DHT22;54665;51.462;6.698;2022-11-20T15:10:25;4.36;93.19
67862;DHT22;54665;51.462;6.698;2022-11-20T15:15:30;4.29;93.15
67862;DHT22;54665;51.462;6.698;2022-11-20T15:17:57;4.25;93.07
67862;DHT22;54665;51.462;6.698;2022-11-20T15:20:26;4.24;93.21
67862;DHT22;54665;51.462;6.698;2022-11-20T15:22:52;4.22;93.40
67862;DHT22;54665;51.462;6.698;2022-11-20T15:25:18;4.19;93.42
67862;DHT22;54665;51.462;6.698;2022-11-20T15:27:44;4.16;93.65
67862;DHT22;54665;51.462;6.698;2022-11-20T15:30:18;4.12;93.85
67862;DHT22;54665;51.462;6.698;2022-11-20T15:32:45;4.18;94.03
67862;DHT22;54665;51.462;6.698;2022-11-20T15:35:11;4.22;94.01
67862;DHT22;54665;51.462;6.698;2022-11-20T15:37:38;4.22;94.12
67862;DHT22;54665;51.462;6.698;2022-11-20T15:40:05;4.22;94.10
67862;DHT22;54665;51.462;6.698;2022-11-20T15:42:30;4.24;94.19
67862;DHT22;54665;51.462;6.698;2022-11-20T15:44:56;4.25;94.29
67862;DHT22;54665;51.462;6.698;2022-11-20T15:47:33;4.28;94.46
67862;DHT22;54665;51.462;6.698;2022-11-20T15:49:59;4.29;94.40
67862;DHT22;54665;51.462;6.698;2022-11-20T15:52:25;4.32;94.49
67862;DHT22;54665;51.462;6.698;2022-11-20T15:54:50;4.29;94.61
67862;DHT22;54665;51.462;6.698;2022-11-20T15:57:15;4.31;94.49
67862;DHT22;54665;51.462;6.698;2022-11-20T15:59:41;4.32;94.55
67862;DHT22;54665;51.462;6.698;2022-11-20T16:02:14;4.29;94.66
67862;DHT22;54665;51.462;6.698;2022-11-20T16:04:41;4.29;94.61
67862;DHT22;54665;51.462;6.698;2022-11-20T16:07:07;4.28;94.68
67862;DHT22;54665;51.462;6.698;2022-11-20T16:09:32;4.32;94.68
67862;DHT22;54665;51.462;6.698;2022-11-20T16:11:58;4.32;94.82
67862;DHT22;54665;51.462;6.698;2022-11-20T16:14:25;4.32;94.88
67862;DHT22;54665;51.462;6.698;2022-11-20T16:17:09;4.32;95.01
67862;DHT22;54665;51.462;6.698;2022-11-20T16:19:34;4.33;95.07
67862;DHT22;54665;51.462;6.698;2022-11-20T16:22:00;4.32;95.09
67862;DHT22;54665;51.462;6.698;2022-11-20T16:24:26;4.33;95.13
67862;DHT22;54665;51.462;6.698;2022-11-20T16:26:53;4.36;95.21
67862;DHT22;54665;51.462;6.698;2022-11-20T16:29:18;4.36;95.30
67862;DHT22;54665;51.462;6.698;2022-11-20T16:31:44;4.38;95.41
67862;DHT22;54665;51.462;6.698;2022-11-20T16:34:09;4.38;95.54
67862;DHT22;54665;51.462;6.698;2022-11-20T16:36:35;4.39;95.70
67862;DHT22;54665;51.462;6.698;2022-11-20T16:39:02;4.42;95.62
67862;DHT22;54665;51.462;6.698;2022-11-20T16:41:30;4.46;95.72
67862;DHT22;54665;51.462;6.698;2022-11-20T16:43:58;4.48;95.67
67862;DHT22;54665;51.462;6.698;2022-11-20T16:46:26;4.45;95.84
67862;DHT22;54665;51.462;6.698;2022-11-20T16:48:53;4.48;95.88
67862;DHT22;54665;51.462;6.698;2022-11-20T16:51:19;4.50;95.86
67862;DHT22;54665;51.462;6.698;2022-11-20T16:53:44;4.55;95.88
67862;DHT22;54665;51.462;6.698;2022-11-20T16:56:15;4.56;95.96
67862;DHT22;54665;51.462;6.698;2022-11-20T16:58:42;4.56;95.98
67862;DHT22;54665;51.462;6.698;2022-11-20T17:01:11;4.62;96.01
67862;DHT22;54665;51.462;6.698;2022-11-20T17:03:38;4.63;96.06
67862;DHT22;54665;51.462;6.698;2022-11-20T17:06:18;4.63;96.11
67862;DHT22;54665;51.462;6.698;2022-11-20T17:08:45;4.65;96.11
67862;DHT22;54665;51.462;6.698;2022-11-20T17:11:14;4.69;96.20